createdAt,value
2022-08-17T00:02:26.467Z,49.47
2022-08-17T00:04:55.064Z,48.42
2022-08-17T00:07:22.607Z,47.08
2022-08-17T00:09:49.681Z,52.13
2022-08-17T00:12:51.263Z,43.53
2022-08-17T00:15:05.294Z,46.67
2022-08-17T00:17:33.129Z,44.30
2022-08-17T00:20:00.415Z,47.28
2022-08-17T00:22:34.376Z,42.35
2022-08-17T00:25:05.497Z,43.97
2022-08-17T00:27:33.651Z,42.00
2022-08-17T00:30:00.479Z,41.58
2022-08-17T00:33:12.248Z,42.40
2022-08-17T00:35:25.337Z,43.35
2022-08-17T00:37:52.771Z,44.03
2022-08-17T00:40:21.193Z,41.80
2022-08-17T00:42:52.739Z,46.33
2022-08-17T00:45:20.433Z,46.72
2022-08-17T00:47:48.204Z,41.72
2022-08-17T00:50:18.467Z,42.78
2022-08-17T00:52:54.949Z,43.25
2022-08-17T00:55:24.154Z,46.45
2022-08-17T00:57:55.563Z,42.15
2022-08-17T01:00:28.197Z,42.00
2022-08-17T01:03:00.225Z,46.80
2022-08-17T01:05:32.497Z,39.55
2022-08-17T01:08:01.770Z,41.50
2022-08-17T01:10:58.555Z,38.53
2022-08-17T01:13:26.086Z,37.75
2022-08-17T01:15:59.586Z,35.45
2022-08-17T01:18:27.467Z,40.80
2022-08-17T01:20:56.349Z,38.45
2022-08-17T01:23:25.787Z,46.72
2022-08-17T01:25:56.007Z,35.17
2022-08-17T01:28:52.636Z,33.92
2022-08-17T01:31:12.701Z,33.53
2022-08-17T01:33:39.992Z,34.42
2022-08-17T01:36:08.382Z,35.00
2022-08-17T01:38:37.305Z,30.92
2022-08-17T01:41:11.313Z,30.80
2022-08-17T01:43:45.020Z,32.60
2022-08-17T01:46:16.985Z,34.70
2022-08-17T01:48:47.740Z,29.63
2022-08-17T01:51:16.270Z,30.92
2022-08-17T01:53:54.339Z,37.35
2022-08-17T01:56:24.357Z,44.30
2022-08-17T01:58:52.481Z,44.63
2022-08-17T02:01:22.943Z,44.10
2022-08-17T02:03:53.475Z,48.38
2022-08-17T02:06:31.281Z,46.13
2022-08-17T02:09:02.270Z,46.65
2022-08-17T02:11:33.523Z,43.97
2022-08-17T02:14:03.335Z,45.03
2022-08-17T02:16:37.395Z,51.72
2022-08-17T02:19:08.397Z,45.08
2022-08-17T02:21:37.063Z,46.67
2022-08-17T02:24:05.611Z,44.30
2022-08-17T02:26:32.618Z,44.88
2022-08-17T02:28:59.571Z,45.67
2022-08-17T02:31:26.586Z,41.67
2022-08-17T02:34:00.443Z,46.45
2022-08-17T02:36:31.880Z,45.33
2022-08-17T02:38:58.829Z,43.53
2022-08-17T02:41:25.770Z,41.70
2022-08-17T02:43:53.665Z,47.25
2022-08-17T02:46:20.772Z,45.80
2022-08-17T02:48:47.763Z,51.80
2022-08-17T02:51:14.968Z,56.55
2022-08-17T02:53:41.831Z,56.63
2022-08-17T02:56:08.973Z,50.88
2022-08-17T02:58:36.319Z,50.35
2022-08-17T03:01:07.468Z,56.30
2022-08-17T03:03:35.829Z,57.53
2022-08-17T03:06:03.931Z,56.67
2022-08-17T03:08:31.049Z,54.50
2022-08-17T03:10:58.294Z,54.80
2022-08-17T03:13:25.333Z,54.70
2022-08-17T03:15:52.383Z,45.15
2022-08-17T03:18:25.735Z,48.13
2022-08-17T03:20:59.825Z,48.60
2022-08-17T03:23:29.715Z,46.70
2022-08-17T03:25:58.075Z,39.92
2022-08-17T03:28:26.064Z,36.65
2022-08-17T03:30:53.097Z,38.83
2022-08-17T03:33:20.487Z,40.08
2022-08-17T03:35:47.666Z,39.80
2022-08-17T03:38:17.149Z,41.22
2022-08-17T03:40:57.472Z,45.92
2022-08-17T03:43:28.165Z,46.83
2022-08-17T03:46:28.159Z,45.22
2022-08-17T03:49:19.557Z,46.83
2022-08-17T03:52:05.185Z,42.78
2022-08-17T03:54:50.450Z,40.50
2022-08-17T03:57:17.522Z,45.05
2022-08-17T03:59:45.109Z,42.15
2022-08-17T04:02:18.667Z,47.22
2022-08-17T04:04:45.506Z,43.40
2022-08-17T04:07:12.366Z,44.70
2022-08-17T04:09:39.173Z,40.47
2022-08-17T04:12:06.181Z,42.67
2022-08-17T04:14:47.782Z,44.45
2022-08-17T04:17:28.250Z,44.35
2022-08-17T04:19:56.283Z,48.05
2022-08-17T04:22:32.573Z,50.72
2022-08-17T04:25:18.384Z,55.03
2022-08-17T04:27:45.216Z,55.22
2022-08-17T04:30:12.772Z,56.28
2022-08-17T04:33:05.488Z,53.08
2022-08-17T04:35:39.375Z,56.10
2022-08-17T04:38:08.079Z,50.42
2022-08-17T04:40:53.699Z,62.85
2022-08-17T04:43:22.774Z,55.83
2022-08-17T04:45:56.908Z,60.72
2022-08-17T04:48:29.844Z,53.85
2022-08-17T04:51:11.632Z,60.83
2022-08-17T04:53:45.310Z,59.05
2022-08-17T04:56:21.085Z,58.70
2022-08-17T04:58:52.565Z,59.90
2022-08-17T05:01:23.563Z,60.65
2022-08-17T05:03:56.199Z,61.58
2022-08-17T05:06:23.643Z,58.65
2022-08-17T05:08:50.739Z,62.17
2022-08-17T05:11:17.581Z,56.63
2022-08-17T05:13:44.872Z,61.15
2022-08-17T05:16:11.788Z,58.25
2022-08-17T05:18:39.190Z,57.22
2022-08-17T05:21:07.056Z,58.55
2022-08-17T05:23:41.858Z,56.92
2022-08-17T05:26:25.495Z,57.75
2022-08-17T05:28:52.925Z,58.80
2022-08-17T05:31:21.315Z,56.88
2022-08-17T05:33:49.502Z,56.40
2022-08-17T05:36:42.768Z,58.85
2022-08-17T05:39:04.232Z,59.17
2022-08-17T05:41:31.162Z,57.67
2022-08-17T05:43:57.973Z,57.55
2022-08-17T05:46:32.319Z,57.47
2022-08-17T05:49:05.719Z,61.28
2022-08-17T05:51:41.436Z,59.28
2022-08-17T05:54:27.160Z,64.05
2022-08-17T05:57:06.265Z,64.80
2022-08-17T05:59:48.544Z,60.25
2022-08-17T06:02:47.683Z,65.65
2022-08-17T06:05:24.389Z,65.63
2022-08-17T06:08:25.349Z,61.15
2022-08-17T06:11:30.623Z,65.22
2022-08-17T06:14:09.303Z,64.15
2022-08-17T06:16:44.382Z,60.00
2022-08-17T06:19:51.089Z,69.07
2022-08-17T06:22:22.229Z,75.00
2022-08-17T06:25:13.760Z,82.78
2022-08-17T06:27:53.525Z,82.20
2022-08-17T06:30:27.268Z,76.80
2022-08-17T06:32:59.635Z,76.63
2022-08-17T06:35:43.698Z,75.40
2022-08-17T06:38:48.593Z,75.78
2022-08-17T06:41:15.430Z,74.20
2022-08-17T06:44:42.142Z,75.20
2022-08-17T06:47:28.525Z,74.68
2022-08-17T06:50:07.838Z,73.60
2022-08-17T06:53:00.214Z,71.65
2022-08-17T06:55:38.122Z,73.03
2022-08-17T06:58:15.562Z,69.25
2022-08-17T07:00:47.147Z,72.47
2022-08-17T07:03:37.719Z,73.65
2022-08-17T07:06:23.524Z,70.97
2022-08-17T07:09:18.142Z,71.22
2022-08-17T07:11:55.448Z,67.22
2022-08-17T07:14:54.191Z,70.80
2022-08-17T07:17:47.484Z,71.88
2022-08-17T07:20:16.058Z,69.20
2022-08-17T07:23:09.008Z,75.70
2022-08-17T07:25:35.899Z,75.40
2022-08-17T07:28:06.078Z,76.57
2022-08-17T07:30:46.842Z,79.15
2022-08-17T07:33:19.943Z,76.47
2022-08-17T07:35:48.430Z,74.93
2022-08-17T07:38:25.205Z,77.30
2022-08-17T07:40:57.919Z,81.28
2022-08-17T07:43:47.744Z,76.20
2022-08-17T07:46:37.891Z,71.50
2022-08-17T07:49:07.627Z,75.25
2022-08-17T07:51:39.687Z,72.70
2022-08-17T07:54:16.067Z,76.30
2022-08-17T07:57:12.853Z,77.40
2022-08-17T07:59:41.265Z,71.55
2022-08-17T08:02:31.642Z,73.20
2022-08-17T08:05:10.149Z,73.25
2022-08-17T08:07:50.595Z,80.38
2022-08-17T08:10:33.597Z,84.97
2022-08-17T08:13:21.646Z,81.38
2022-08-17T08:15:53.761Z,77.00
2022-08-17T08:18:53.451Z,79.50
2022-08-17T08:21:51.524Z,80.32
2022-08-17T08:24:52.183Z,81.57
2022-08-17T08:27:33.578Z,77.70
2022-08-17T08:30:12.115Z,75.68
2022-08-17T08:32:57.360Z,77.18
2022-08-17T08:35:44.304Z,74.53
2022-08-17T08:38:20.079Z,74.68
2022-08-17T08:40:50.049Z,72.38
2022-08-17T08:43:40.557Z,70.03
2022-08-17T08:46:35.375Z,62.00
2022-08-17T08:49:59.550Z,62.83
2022-08-17T08:52:37.470Z,55.83
2022-08-17T08:55:27.504Z,58.90
2022-08-17T08:58:03.180Z,54.67
2022-08-17T09:00:36.306Z,51.70
2022-08-17T09:03:31.578Z,47.95
2022-08-17T09:06:37.872Z,43.78
2022-08-17T09:09:04.616Z,50.17
2022-08-17T09:12:03.463Z,46.78
2022-08-17T09:14:44.922Z,45.33
2022-08-17T09:17:43.604Z,46.28
2022-08-17T09:20:28.205Z,44.42
2022-08-17T09:23:08.107Z,47.08
2022-08-17T09:25:55.740Z,49.22
2022-08-17T09:28:35.250Z,53.88
2022-08-17T09:31:46.338Z,52.35
2022-08-17T09:34:26.955Z,60.83
2022-08-17T09:37:27.099Z,56.40
2022-08-17T09:40:09.715Z,51.88
2022-08-17T09:42:51.422Z,54.58
2022-08-17T09:45:42.896Z,56.28
2022-08-17T09:48:18.065Z,61.78
2022-08-17T09:51:05.696Z,63.15
2022-08-17T09:53:36.658Z,61.60
2022-08-17T09:56:30.129Z,60.10
2022-08-17T09:59:37.133Z,51.95
2022-08-17T10:02:20.993Z,50.53
2022-08-17T10:05:08.812Z,48.60
2022-08-17T10:07:48.420Z,44.03
2022-08-17T10:10:21.916Z,49.05
2022-08-17T10:13:05.267Z,44.78
2022-08-17T10:15:47.077Z,44.53
2022-08-17T10:18:38.913Z,44.95
2022-08-17T10:21:31.361Z,47.25
2022-08-17T10:24:28.627Z,44.92
2022-08-17T10:26:59.718Z,45.25
2022-08-17T10:29:48.470Z,44.00
2022-08-17T10:32:24.987Z,42.10
2022-08-17T10:35:17.456Z,44.83
2022-08-17T10:37:56.423Z,42.05
2022-08-17T10:40:24.728Z,42.50
2022-08-17T10:43:26.845Z,46.63
2022-08-17T10:46:09.205Z,41.92
2022-08-17T10:49:20.470Z,45.17
2022-08-17T10:51:54.467Z,47.08
2022-08-17T10:54:24.685Z,49.65
2022-08-17T10:56:56.906Z,50.40
2022-08-17T10:59:36.041Z,49.25
2022-08-17T11:02:22.905Z,50.42
2022-08-17T11:05:01.108Z,49.50
2022-08-17T11:07:48.154Z,52.42
2022-08-17T11:10:51.824Z,56.08
2022-08-17T11:13:48.589Z,52.28
2022-08-17T11:16:38.625Z,52.58
2022-08-17T11:19:49.962Z,51.10
2022-08-17T11:22:48.642Z,54.22
2022-08-17T11:25:20.449Z,48.25
2022-08-17T11:27:53.833Z,46.67
2022-08-17T11:30:51.174Z,45.47
2022-08-17T11:33:30.537Z,49.30
2022-08-17T11:36:22.014Z,49.10
2022-08-17T11:39:26.888Z,46.85
2022-08-17T11:42:01.750Z,43.33
2022-08-17T11:44:48.815Z,43.47
2022-08-17T11:48:23.866Z,37.38
2022-08-17T11:51:47.535Z,42.22
2022-08-17T11:54:34.718Z,44.60
2022-08-17T11:57:26.365Z,43.22
2022-08-17T11:59:54.492Z,43.95
2022-08-17T12:02:35.322Z,44.85
2022-08-17T12:05:28.312Z,43.63
2022-08-17T12:08:00.974Z,43.58
2022-08-17T12:10:34.414Z,42.42
2022-08-17T12:13:15.923Z,44.80
2022-08-17T12:15:50.490Z,46.97
2022-08-17T12:18:29.869Z,42.85
2022-08-17T12:21:05.681Z,43.15
2022-08-17T12:24:01.602Z,47.17
2022-08-17T12:26:33.221Z,42.67
2022-08-17T12:29:03.444Z,47.88
2022-08-17T12:31:43.198Z,44.08
2022-08-17T12:34:40.867Z,42.78
2022-08-17T12:37:22.656Z,42.60
2022-08-17T12:40:08.246Z,45.67
2022-08-17T12:42:39.365Z,39.38
2022-08-17T12:45:23.672Z,44.50
2022-08-17T12:48:07.675Z,43.67
2022-08-17T12:50:40.817Z,37.72
2022-08-17T12:53:16.788Z,38.08
2022-08-17T12:55:44.429Z,34.70
2022-08-17T12:58:14.646Z,28.00
2022-08-17T13:00:48.978Z,37.15
2022-08-17T13:03:21.855Z,33.30
2022-08-17T13:06:09.729Z,32.22
2022-08-17T13:08:45.947Z,32.33
2022-08-17T13:11:18.860Z,39.28
2022-08-17T13:13:51.468Z,38.00
2022-08-17T13:16:22.717Z,37.70
2022-08-17T13:18:55.970Z,31.02
2022-08-17T13:21:30.785Z,31.55
2022-08-17T13:24:11.679Z,32.15
2022-08-17T13:26:42.633Z,36.08
2022-08-17T13:29:26.051Z,30.25
2022-08-17T13:32:15.035Z,22.27
2022-08-17T13:35:11.537Z,20.50
2022-08-17T13:37:36.983Z,16.38
2022-08-17T13:40:10.415Z,16.42
2022-08-17T13:42:52.236Z,19.83
2022-08-17T13:45:35.234Z,21.90
2022-08-17T13:48:15.855Z,24.77
2022-08-17T13:50:45.439Z,18.45
2022-08-17T13:53:21.783Z,20.10
2022-08-17T13:55:53.722Z,19.20
2022-08-17T13:58:33.738Z,19.48
2022-08-17T14:01:39.325Z,20.10
2022-08-17T14:04:10.099Z,22.40
2022-08-17T14:07:08.904Z,26.05
2022-08-17T14:09:41.966Z,21.50
2022-08-17T14:12:17.728Z,23.48
2022-08-17T14:14:45.334Z,25.52
2022-08-17T14:17:12.642Z,25.73
2022-08-17T14:19:39.650Z,36.92
2022-08-17T14:22:18.884Z,32.75
2022-08-17T14:24:46.419Z,33.75
2022-08-17T14:27:13.322Z,32.30
2022-08-17T14:29:41.339Z,34.92
2022-08-17T14:32:15.666Z,41.28
2022-08-17T14:34:42.989Z,34.75
2022-08-17T14:37:10.006Z,32.35
2022-08-17T14:39:36.901Z,32.25
2022-08-17T14:42:03.961Z,33.40
2022-08-17T14:44:31.004Z,31.00
2022-08-17T14:46:58.076Z,28.23
2022-08-17T14:49:26.000Z,30.10
2022-08-17T14:51:52.998Z,30.65
2022-08-17T14:54:33.135Z,31.13
2022-08-17T14:57:22.626Z,28.23
2022-08-17T14:59:51.720Z,30.02
2022-08-17T15:02:29.672Z,29.73
2022-08-17T15:05:02.425Z,25.75
2022-08-17T15:07:30.861Z,26.90
2022-08-17T15:10:02.047Z,27.52
2022-08-17T15:12:33.305Z,33.40
2022-08-17T15:15:05.552Z,27.55
2022-08-17T15:17:54.677Z,30.38
2022-08-17T15:20:24.125Z,32.08
2022-08-17T15:22:51.092Z,30.95
2022-08-17T15:25:19.205Z,26.00
2022-08-17T15:27:48.466Z,27.15
2022-08-17T15:30:16.057Z,23.70
2022-08-17T15:32:50.791Z,22.98
2022-08-17T15:35:26.870Z,24.20
2022-08-17T15:37:54.783Z,23.60
2022-08-17T15:40:22.166Z,25.38
2022-08-17T15:42:51.097Z,22.38
2022-08-17T15:45:24.599Z,21.98
2022-08-17T15:47:52.626Z,22.77
2022-08-17T15:50:20.157Z,25.52
2022-08-17T15:52:53.800Z,26.42
2022-08-17T15:55:24.149Z,27.67
2022-08-17T15:57:52.282Z,28.70
2022-08-17T16:00:20.766Z,26.02
2022-08-17T16:03:13.529Z,26.73
2022-08-17T16:05:35.706Z,27.20
2022-08-17T16:08:02.793Z,27.75
2022-08-17T16:10:35.639Z,30.65
2022-08-17T16:13:04.187Z,29.50
2022-08-17T16:15:31.812Z,26.85
2022-08-17T16:17:59.481Z,25.88
2022-08-17T16:20:26.462Z,31.80
2022-08-17T16:22:54.471Z,27.38
2022-08-17T16:25:38.378Z,29.88
2022-08-17T16:28:15.138Z,26.15
2022-08-17T16:30:42.452Z,27.42
2022-08-17T16:33:11.501Z,28.80
2022-08-17T16:35:38.972Z,26.60
2022-08-17T16:38:07.282Z,27.10
2022-08-17T16:40:36.116Z,27.10
2022-08-17T16:43:04.334Z,27.08
2022-08-17T16:45:36.704Z,29.30
2022-08-17T16:48:04.489Z,26.60
2022-08-17T16:50:33.864Z,26.90
2022-08-17T16:53:17.420Z,33.13
2022-08-17T16:55:45.695Z,29.55
2022-08-17T16:58:12.897Z,27.60
2022-08-17T17:00:40.062Z,27.58
2022-08-17T17:03:18.890Z,29.77
2022-08-17T17:06:03.672Z,25.92
2022-08-17T17:09:00.371Z,25.85
2022-08-17T17:11:33.764Z,25.42
2022-08-17T17:14:11.910Z,26.98
2022-08-17T17:16:57.751Z,27.95
2022-08-17T17:20:02.568Z,24.73
2022-08-17T17:22:52.539Z,24.95
2022-08-17T17:25:25.404Z,25.38
2022-08-17T17:28:02.738Z,25.35
2022-08-17T17:30:35.133Z,26.33
2022-08-17T17:33:10.537Z,25.05
2022-08-17T17:35:45.944Z,26.90
2022-08-17T17:38:22.127Z,27.00
2022-08-17T17:40:54.002Z,29.35
2022-08-17T17:43:40.363Z,30.88
2022-08-17T17:46:28.616Z,27.77
2022-08-17T17:48:57.604Z,27.95
2022-08-17T17:51:55.012Z,28.80
2022-08-17T17:54:55.615Z,24.55
2022-08-17T17:57:29.996Z,24.17
2022-08-17T18:00:11.232Z,24.30
2022-08-17T18:03:12.134Z,26.75
2022-08-17T18:06:18.742Z,25.38
2022-08-17T18:09:06.409Z,22.83
2022-08-17T18:12:03.472Z,22.60
2022-08-17T18:14:53.297Z,22.65
2022-08-17T18:17:20.411Z,23.90
2022-08-17T18:19:48.283Z,21.70
2022-08-17T18:22:20.832Z,23.17
2022-08-17T18:24:56.086Z,24.02
2022-08-17T18:27:25.867Z,22.38
2022-08-17T18:29:56.019Z,25.75
2022-08-17T18:32:31.996Z,19.98
2022-08-17T18:35:10.927Z,20.73
2022-08-17T18:37:58.093Z,21.83
2022-08-17T18:40:32.974Z,20.67
2022-08-17T18:43:08.427Z,17.42
2022-08-17T18:45:48.024Z,17.85
2022-08-17T18:48:36.874Z,17.98
2022-08-17T18:51:27.433Z,17.70
2022-08-17T18:54:12.741Z,20.42
2022-08-17T18:56:53.545Z,19.23
2022-08-17T18:59:46.772Z,16.77
2022-08-17T19:02:22.064Z,21.70
2022-08-17T19:05:00.839Z,17.45
2022-08-17T19:07:34.327Z,18.48
2022-08-17T19:10:11.209Z,18.55
2022-08-17T19:12:50.389Z,19.08
2022-08-17T19:15:26.169Z,19.33
2022-08-17T19:18:06.813Z,18.17
2022-08-17T19:20:45.627Z,20.65
2022-08-17T19:23:27.350Z,19.90
2022-08-17T19:25:58.454Z,22.38
2022-08-17T19:28:27.547Z,23.00
2022-08-17T19:31:03.564Z,23.15
2022-08-17T19:33:31.518Z,23.00
2022-08-17T19:36:15.626Z,28.67
2022-08-17T19:39:16.500Z,22.20
2022-08-17T19:42:05.512Z,23.25
2022-08-17T19:44:47.085Z,23.05
2022-08-17T19:47:53.803Z,25.60
2022-08-17T19:50:41.514Z,25.52
2022-08-17T19:54:04.889Z,26.58
2022-08-17T19:57:08.351Z,26.88
2022-08-17T19:59:56.350Z,31.92
2022-08-17T20:02:42.367Z,27.73
2022-08-17T20:05:13.904Z,28.33
2022-08-17T20:07:52.527Z,28.65
2022-08-17T20:10:55.022Z,29.85
2022-08-17T20:13:34.022Z,28.35
2022-08-17T20:16:02.773Z,31.25
2022-08-17T20:18:34.031Z,30.70
2022-08-17T20:21:35.047Z,28.58
2022-08-17T20:24:28.213Z,32.70
2022-08-17T20:26:59.614Z,32.53
2022-08-17T20:29:39.573Z,35.50
2022-08-17T20:32:23.995Z,36.42
2022-08-17T20:35:03.853Z,37.42
2022-08-17T20:37:34.018Z,42.53
2022-08-17T20:40:05.693Z,39.15
2022-08-17T20:42:33.993Z,39.92
2022-08-17T20:45:26.329Z,40.00
2022-08-17T20:48:21.630Z,39.88
2022-08-17T20:50:52.908Z,37.17
2022-08-17T20:53:47.855Z,37.78
2022-08-17T20:56:46.554Z,40.60
2022-08-17T20:59:24.212Z,42.45
2022-08-17T21:02:08.880Z,40.33
2022-08-17T21:04:45.150Z,39.78
2022-08-17T21:07:32.984Z,37.20
2022-08-17T21:10:29.894Z,38.45
2022-08-17T21:13:04.692Z,35.53
2022-08-17T21:15:48.650Z,35.75
2022-08-17T21:18:35.210Z,34.08
2022-08-17T21:21:17.585Z,36.17
2022-08-17T21:24:03.042Z,37.17
2022-08-17T21:26:50.830Z,36.13
2022-08-17T21:29:32.315Z,34.05
2022-08-17T21:32:00.639Z,35.17
2022-08-17T21:34:35.025Z,32.67
2022-08-17T21:37:20.570Z,32.22
2022-08-17T21:39:56.146Z,34.22
2022-08-17T21:42:32.718Z,35.17
2022-08-17T21:45:24.280Z,33.72
2022-08-17T21:48:06.097Z,36.95
2022-08-17T21:50:34.347Z,34.85
2022-08-17T21:53:02.757Z,33.45
2022-08-17T21:55:32.816Z,38.78
2022-08-17T21:58:12.133Z,34.72
2022-08-17T22:00:41.384Z,35.45
2022-08-17T22:03:23.753Z,34.08
2022-08-17T22:05:51.526Z,38.17
2022-08-17T22:08:22.159Z,37.70
2022-08-17T22:10:51.424Z,36.50
2022-08-17T22:13:18.440Z,35.35
2022-08-17T22:15:49.774Z,34.90
2022-08-17T22:18:27.199Z,34.85
2022-08-17T22:20:57.061Z,38.67
2022-08-17T22:23:55.828Z,34.88
2022-08-17T22:26:27.822Z,37.40
2022-08-17T22:28:57.249Z,39.40
2022-08-17T22:31:25.577Z,36.13
2022-08-17T22:34:07.653Z,40.58
2022-08-17T22:36:39.105Z,38.80
2022-08-17T22:39:08.875Z,45.08
2022-08-17T22:41:54.348Z,47.03
2022-08-17T22:44:32.037Z,58.47
2022-08-17T22:47:18.743Z,48.92
2022-08-17T22:49:53.584Z,51.75
2022-08-17T22:52:33.022Z,52.38
2022-08-17T22:55:30.048Z,51.38
2022-08-17T22:58:15.789Z,53.20
2022-08-17T23:00:46.511Z,57.30
2022-08-17T23:03:25.106Z,55.78
2022-08-17T23:06:06.032Z,59.17
2022-08-17T23:08:35.821Z,58.13
2022-08-17T23:11:02.974Z,60.20
2022-08-17T23:13:33.543Z,59.63
2022-08-17T23:16:00.552Z,59.55
2022-08-17T23:18:27.412Z,55.97
2022-08-17T23:20:54.798Z,61.55
2022-08-17T23:23:23.913Z,55.00
2022-08-17T23:25:50.974Z,55.38
2022-08-17T23:28:18.313Z,56.28
2022-08-17T23:30:48.465Z,51.40
2022-08-17T23:33:29.848Z,54.85
2022-08-17T23:35:59.986Z,55.55
2022-08-17T23:38:27.894Z,51.47
2022-08-17T23:40:55.540Z,53.35
2022-08-17T23:43:25.496Z,52.58
2022-08-17T23:45:57.560Z,50.35
2022-08-17T23:48:35.030Z,51.55
2022-08-17T23:51:08.721Z,50.63
2022-08-17T23:53:37.182Z,50.13
2022-08-17T23:56:09.563Z,50.65
2022-08-17T23:58:42.245Z,55.03
